Aviation Digital Data Service (ADDS)

Output produced by TAFs form (2138 UTC 16 August 2017)
found at http://www.aviationweather.gov/adds/tafs/
 
METAR text: NSTU 162053Z 01007KT 12SM FEW018 SCT120 BKN180 30/27 A2989 RMK SLP122 8/171 T02980266 52014
Conditions at: NSTU (PAGO PAGO , WS) observed 2053 UTC 16 August 2017
Temperature: 29.8°C (86°F)
Dewpoint: 26.6°C (80°F) [RH = 83%]
Pressure (altimeter): 29.89 inches Hg (1012.3 mb)
[Sea-level pressure: 1012.2 mb]
Winds: from the N (10 degrees) at 8 MPH (7 knots; 3.6 m/s)
Visibility: 12 miles (19 km)
Ceiling: 18000 feet AGL
Clouds: few clouds at 1800 feet AGL
scattered clouds at 12000 feet AGL
broken clouds at 18000 feet AGL
Weather: no significant weather observed at this time

Forecast for: NSTU (PAGO PAGO , WS)
Text: NSTU 161737Z 1618/1718 04007KT P6SM VCSH SCT015 BKN040 OVC100
Forecast period: 1800 UTC 16 August 2017 to 1800 UTC 17 August 2017
Forecast type: FROM: standard forecast or significant change
Winds: from the NE (40 degrees) at 8 MPH (7 knots; 3.6 m/s)
Visibility: 6 or more miles (10+ km)
Ceiling: 4000 feet AGL
Clouds: scattered clouds at 1500 feet AGL
broken clouds at 4000 feet AGL
overcast cloud deck at 10000 feet AGL
Weather: VCSH  (showers in vicinity)